createdAt,value
2022-12-29T00:00:02.893Z,98280.47
2022-12-29T00:03:02.173Z,98276.09
2022-12-29T00:05:57.464Z,98279.50
2022-12-29T00:08:46.890Z,98295.97
2022-12-29T00:11:36.543Z,98295.38
2022-12-29T00:14:44.713Z,98300.63
2022-12-29T00:17:33.968Z,98312.25
2022-12-29T00:20:40.267Z,98321.56
2022-12-29T00:23:46.731Z,98328.03
2022-12-29T00:26:53.686Z,98344.81
2022-12-29T00:30:01.784Z,98349.19
2022-12-29T00:33:07.958Z,98337.16
2022-12-29T00:36:03.518Z,98349.81
2022-12-29T00:39:14.441Z,98350.69
2022-12-29T00:42:35.477Z,98358.84
2022-12-29T00:45:28.146Z,98361.28
2022-12-29T00:48:37.556Z,98357.91
2022-12-29T00:51:25.899Z,98361.16
2022-12-29T00:54:16.077Z,98355.06
2022-12-29T00:57:11.581Z,98358.50
2022-12-29T01:00:01.080Z,98367.19
2022-12-29T01:02:52.626Z,98361.28
2022-12-29T01:05:42.085Z,98377.28
2022-12-29T01:08:31.547Z,98368.00
2022-12-29T01:11:19.831Z,98375.63
2022-12-29T01:14:09.666Z,98390.44
2022-12-29T01:17:00.223Z,98385.78
2022-12-29T01:19:50.829Z,98392.13
2022-12-29T01:22:40.485Z,98385.91
2022-12-29T01:25:29.777Z,98391.94
2022-12-29T01:28:25.669Z,98397.75
2022-12-29T01:31:17.613Z,98382.63
2022-12-29T01:34:08.326Z,98382.41
2022-12-29T01:36:58.993Z,98411.13
2022-12-29T01:39:48.323Z,98405.69
2022-12-29T01:42:37.690Z,98403.84
2022-12-29T01:45:26.997Z,98409.09
2022-12-29T01:48:17.327Z,98403.47
2022-12-29T01:51:09.258Z,98424.72
2022-12-29T01:54:04.980Z,98410.56
2022-12-29T01:56:55.995Z,98408.03
2022-12-29T01:59:52.559Z,98417.78
2022-12-29T02:02:45.031Z,98427.53
2022-12-29T02:05:40.853Z,98437.47
2022-12-29T02:08:32.301Z,98454.97
2022-12-29T02:11:24.504Z,98447.25
2022-12-29T02:14:16.374Z,98445.06
2022-12-29T02:17:17.994Z,98441.75
2022-12-29T02:20:55.591Z,98447.72
2022-12-29T02:24:28.848Z,98447.09
2022-12-29T02:27:52.602Z,98471.56
2022-12-29T02:30:53.860Z,98448.47
2022-12-29T02:34:03.000Z,98459.69
2022-12-29T02:37:04.180Z,98462.06
2022-12-29T02:40:08.267Z,98469.63
2022-12-29T02:43:05.900Z,98474.84
2022-12-29T02:46:02.697Z,98453.84
2022-12-29T02:49:01.075Z,98473.00
2022-12-29T02:51:58.231Z,98499.09
2022-12-29T02:54:50.154Z,98493.88
2022-12-29T02:57:39.539Z,98512.69
2022-12-29T03:00:29.363Z,98503.59
2022-12-29T03:03:30.890Z,98499.41
2022-12-29T03:06:40.082Z,98505.63
2022-12-29T03:09:44.182Z,98508.50
2022-12-29T03:12:56.433Z,98509.97
2022-12-29T03:16:03.356Z,98509.75
2022-12-29T03:19:03.153Z,98520.63
2022-12-29T03:22:16.663Z,98536.34
2022-12-29T03:25:21.702Z,98521.66
2022-12-29T03:28:14.610Z,98548.38
2022-12-29T03:31:10.168Z,98542.28
2022-12-29T03:34:05.263Z,98561.53
2022-12-29T03:37:02.707Z,98583.66
2022-12-29T03:39:52.289Z,98589.34
2022-12-29T03:42:43.225Z,98593.84
2022-12-29T03:45:32.542Z,98603.97
2022-12-29T03:48:22.058Z,98604.28
2022-12-29T03:51:14.622Z,98600.41
2022-12-29T03:54:05.131Z,98622.88
2022-12-29T03:56:55.415Z,98610.56
2022-12-29T03:59:56.335Z,98627.19
2022-12-29T04:02:45.857Z,98632.41
2022-12-29T04:05:41.093Z,98627.41
2022-12-29T04:08:32.199Z,98643.50
2022-12-29T04:11:21.536Z,98652.13
2022-12-29T04:14:11.954Z,98642.28
2022-12-29T04:17:01.208Z,98658.69
2022-12-29T04:19:52.157Z,98638.41
2022-12-29T04:22:41.618Z,98649.88
2022-12-29T04:25:33.288Z,98660.84
2022-12-29T04:28:23.113Z,98653.03
2022-12-29T04:31:44.914Z,98679.22
2022-12-29T04:34:34.813Z,98681.16
2022-12-29T04:37:24.109Z,98681.25
2022-12-29T04:40:14.387Z,98695.91
2022-12-29T04:43:05.635Z,98703.03
2022-12-29T04:45:59.982Z,98701.09
2022-12-29T04:48:55.427Z,98692.03
2022-12-29T04:52:03.534Z,98694.63
2022-12-29T04:54:53.181Z,98700.19
2022-12-29T04:57:43.678Z,98712.13
2022-12-29T05:00:38.476Z,98717.56
2022-12-29T05:03:27.849Z,98721.53
2022-12-29T05:06:17.621Z,98700.91
2022-12-29T05:09:08.636Z,98716.97
2022-12-29T05:11:58.596Z,98728.06
2022-12-29T05:14:47.981Z,98701.00
2022-12-29T05:17:39.441Z,98732.16
2022-12-29T05:20:30.190Z,98722.19
2022-12-29T05:23:20.286Z,98723.75
2022-12-29T05:26:15.744Z,98724.00
2022-12-29T05:29:19.097Z,98728.88
2022-12-29T05:32:08.462Z,98725.13
2022-12-29T05:34:59.572Z,98729.78
2022-12-29T05:37:49.050Z,98710.06
2022-12-29T05:40:38.376Z,98723.19
2022-12-29T05:43:35.839Z,98739.84
2022-12-29T05:46:51.675Z,98744.81
2022-12-29T05:49:55.849Z,98748.09
2022-12-29T05:53:04.963Z,98743.91
2022-12-29T05:55:55.017Z,98756.16
2022-12-29T05:58:44.348Z,98756.03
2022-12-29T06:01:35.359Z,98783.72
2022-12-29T06:04:25.351Z,98753.03
2022-12-29T06:07:15.005Z,98776.63
2022-12-29T06:10:10.273Z,98750.66
2022-12-29T06:13:10.071Z,98757.25
2022-12-29T06:16:03.129Z,98765.63
2022-12-29T06:18:52.714Z,98755.75
2022-12-29T06:21:42.006Z,98766.09
2022-12-29T06:24:32.685Z,98746.63
2022-12-29T06:27:23.358Z,98733.13
2022-12-29T06:30:16.003Z,98781.00
2022-12-29T06:33:06.534Z,98777.09
2022-12-29T06:35:55.951Z,98772.47
2022-12-29T06:38:45.262Z,98762.91
2022-12-29T06:41:35.131Z,98774.50
2022-12-29T06:45:01.896Z,98777.22
2022-12-29T06:47:51.139Z,98771.66
2022-12-29T06:50:40.449Z,98786.44
2022-12-29T06:53:29.729Z,98778.31
2022-12-29T06:56:19.166Z,98780.81
2022-12-29T06:59:08.568Z,98798.38
2022-12-29T07:01:59.279Z,98793.41
2022-12-29T07:04:48.703Z,98782.66
2022-12-29T07:07:37.966Z,98805.53
2022-12-29T07:10:27.326Z,98811.84
2022-12-29T07:13:16.700Z,98804.69
2022-12-29T07:16:11.228Z,98798.47
2022-12-29T07:19:01.954Z,98815.16
2022-12-29T07:21:51.248Z,98811.59
2022-12-29T07:24:40.538Z,98817.28
2022-12-29T07:27:29.746Z,98837.22
2022-12-29T07:30:19.205Z,98837.53
2022-12-29T07:33:08.448Z,98796.75
2022-12-29T07:35:59.530Z,98828.59
2022-12-29T07:38:48.834Z,98817.38
2022-12-29T07:41:38.201Z,98818.59
2022-12-29T07:44:27.463Z,98822.63
2022-12-29T07:47:37.285Z,98832.19
2022-12-29T07:50:26.531Z,98827.31
2022-12-29T07:53:17.391Z,98838.44
2022-12-29T07:56:07.752Z,98831.13
2022-12-29T07:58:57.491Z,98836.56
2022-12-29T08:01:46.900Z,98843.63
2022-12-29T08:04:36.273Z,98845.09
2022-12-29T08:07:25.614Z,98837.09
2022-12-29T08:10:17.743Z,98840.38
2022-12-29T08:13:07.048Z,98831.50
2022-12-29T08:15:56.334Z,98845.28
2022-12-29T08:18:45.632Z,98853.44
2022-12-29T08:21:34.930Z,98848.94
2022-12-29T08:24:24.450Z,98867.75
2022-12-29T08:27:20.305Z,98875.44
2022-12-29T08:30:12.349Z,98871.91
2022-12-29T08:33:01.634Z,98861.53
2022-12-29T08:35:50.877Z,98858.00
2022-12-29T08:38:40.176Z,98856.94
2022-12-29T08:41:29.482Z,98861.38
2022-12-29T08:44:20.187Z,98865.03
2022-12-29T08:47:09.578Z,98874.19
2022-12-29T08:49:58.854Z,98883.47
2022-12-29T08:52:48.258Z,98856.44
2022-12-29T08:55:37.585Z,98875.25
2022-12-29T08:58:27.537Z,98887.56
2022-12-29T09:01:19.001Z,98875.75
2022-12-29T09:04:17.350Z,98891.81
2022-12-29T09:07:07.735Z,98887.75
2022-12-29T09:09:56.960Z,98895.00
2022-12-29T09:12:46.238Z,98922.44
2022-12-29T09:15:35.517Z,98914.53
2022-12-29T09:18:26.218Z,98950.75
2022-12-29T09:21:15.644Z,98933.22
2022-12-29T09:24:05.224Z,98943.09
2022-12-29T09:26:54.452Z,98964.97
2022-12-29T09:29:43.799Z,98963.66
2022-12-29T09:32:34.320Z,98956.34
2022-12-29T09:35:25.955Z,99011.47
2022-12-29T09:38:16.937Z,98969.75
2022-12-29T09:41:16.281Z,98955.88
2022-12-29T09:44:18.664Z,98995.00
2022-12-29T09:47:13.777Z,98968.09
2022-12-29T09:50:08.868Z,98949.94
2022-12-29T09:53:07.964Z,98979.00
2022-12-29T09:56:02.855Z,99001.22
2022-12-29T09:58:57.787Z,98984.03
2022-12-29T10:01:59.152Z,99002.34
2022-12-29T10:04:48.657Z,99017.66
2022-12-29T10:07:47.777Z,99018.34
2022-12-29T10:10:45.524Z,98984.53
2022-12-29T10:13:49.579Z,99007.03
2022-12-29T10:16:51.196Z,99019.41
2022-12-29T10:20:02.159Z,99023.09
2022-12-29T10:23:28.490Z,99024.34
2022-12-29T10:26:22.333Z,99015.06
2022-12-29T10:29:19.706Z,99038.66
2022-12-29T10:32:16.850Z,99043.81
2022-12-29T10:35:14.105Z,99048.22
2022-12-29T10:38:15.293Z,99025.34
2022-12-29T10:41:14.134Z,99065.06
2022-12-29T10:44:04.858Z,99073.09
2022-12-29T10:47:01.284Z,99069.16
2022-12-29T10:49:51.545Z,99092.97
2022-12-29T10:52:41.384Z,99105.56
2022-12-29T10:55:35.940Z,99109.22
2022-12-29T10:58:27.252Z,99117.66
2022-12-29T11:01:19.183Z,99127.31
2022-12-29T11:04:30.560Z,99107.22
2022-12-29T11:07:26.899Z,99101.75
2022-12-29T11:10:30.699Z,99097.91
2022-12-29T11:13:26.637Z,99108.28
2022-12-29T11:16:28.896Z,99109.22
2022-12-29T11:19:24.198Z,99104.72
2022-12-29T11:22:24.566Z,99106.44
2022-12-29T11:25:15.575Z,99116.19
2022-12-29T11:28:18.407Z,99115.72
2022-12-29T11:31:10.165Z,99126.94
2022-12-29T11:34:00.815Z,99159.72
2022-12-29T11:36:51.535Z,99139.47
2022-12-29T11:39:48.684Z,99132.78
2022-12-29T11:42:41.412Z,99144.47
2022-12-29T11:45:35.406Z,99150.00
2022-12-29T11:48:25.236Z,99145.84
2022-12-29T11:51:25.685Z,99160.09
2022-12-29T11:54:21.861Z,99149.56
2022-12-29T11:57:14.815Z,99155.91
2022-12-29T12:00:16.769Z,99172.94
2022-12-29T12:03:14.556Z,99173.00
2022-12-29T12:06:05.595Z,99166.84
2022-12-29T12:08:59.944Z,99173.41
2022-12-29T12:11:54.914Z,99171.72
2022-12-29T12:14:55.461Z,99161.13
2022-12-29T12:18:05.641Z,99172.31
2022-12-29T12:20:59.298Z,99189.00
2022-12-29T12:24:28.996Z,99185.03
2022-12-29T12:27:25.208Z,99185.38
2022-12-29T12:30:19.676Z,99199.84
2022-12-29T12:33:20.991Z,99206.97
2022-12-29T12:36:32.599Z,99205.88
2022-12-29T12:39:34.596Z,99196.34
2022-12-29T12:42:41.786Z,99212.53
2022-12-29T12:45:48.178Z,99222.78
2022-12-29T12:49:03.383Z,99228.25
2022-12-29T12:52:06.212Z,99216.94
2022-12-29T12:55:19.026Z,99211.50
2022-12-29T12:58:20.321Z,99218.41
2022-12-29T13:01:29.943Z,99236.47
2022-12-29T13:04:50.690Z,99226.78
2022-12-29T13:07:54.211Z,99236.34
2022-12-29T13:10:53.744Z,99232.69
2022-12-29T13:14:22.866Z,99255.63
2022-12-29T13:17:21.656Z,99273.53
2022-12-29T13:20:25.351Z,99265.66
2022-12-29T13:23:24.157Z,99271.81
2022-12-29T13:26:22.579Z,99276.72
2022-12-29T13:29:19.697Z,99276.28
2022-12-29T13:32:28.374Z,99292.72
2022-12-29T13:35:44.342Z,99290.31
2022-12-29T13:38:40.023Z,99312.69
2022-12-29T13:41:36.130Z,99308.03
2022-12-29T13:44:33.233Z,99315.41
2022-12-29T13:47:33.324Z,99328.63
2022-12-29T13:50:27.034Z,99327.16
2022-12-29T13:53:31.490Z,99325.31
2022-12-29T13:56:26.377Z,99328.81
2022-12-29T13:59:31.297Z,99338.25
2022-12-29T14:02:33.175Z,99333.81
2022-12-29T14:05:33.896Z,99329.16
2022-12-29T14:08:24.899Z,99343.44
2022-12-29T14:11:16.834Z,99348.22
2022-12-29T14:14:17.000Z,99345.19
2022-12-29T14:17:15.572Z,99347.25
2022-12-29T14:20:08.696Z,99339.28
2022-12-29T14:23:01.693Z,99329.41
2022-12-29T14:26:01.849Z,99339.44
2022-12-29T14:28:51.655Z,99346.50
2022-12-29T14:31:42.932Z,99350.81
2022-12-29T14:34:42.021Z,99335.97
2022-12-29T14:37:33.427Z,99349.88
2022-12-29T14:40:28.307Z,99327.66
2022-12-29T14:43:28.183Z,99343.59
2022-12-29T14:46:17.994Z,99343.47
2022-12-29T14:49:07.273Z,99348.06
2022-12-29T14:52:09.714Z,99370.53
2022-12-29T14:55:02.242Z,99365.69
2022-12-29T14:57:54.735Z,99364.25
2022-12-29T15:00:45.286Z,99357.22
2022-12-29T15:03:46.159Z,99359.75
2022-12-29T15:06:42.829Z,99365.06
2022-12-29T15:09:39.778Z,99346.97
2022-12-29T15:12:38.112Z,99362.50
2022-12-29T15:15:31.010Z,99355.16
2022-12-29T15:18:27.818Z,99358.69
2022-12-29T15:21:18.836Z,99370.19
2022-12-29T15:24:13.482Z,99362.53
2022-12-29T15:27:06.943Z,99342.88
2022-12-29T15:30:02.820Z,99366.84
2022-12-29T15:32:53.808Z,99354.25
2022-12-29T15:35:43.132Z,99376.63
2022-12-29T15:38:40.029Z,99383.84
2022-12-29T15:41:58.186Z,99399.03
2022-12-29T15:44:54.192Z,99393.94
2022-12-29T15:47:50.367Z,99399.38
2022-12-29T15:50:40.594Z,99383.69
2022-12-29T15:53:33.307Z,99409.75
2022-12-29T15:56:22.828Z,99396.47
2022-12-29T15:59:27.829Z,99421.44
2022-12-29T16:02:19.009Z,99406.88
2022-12-29T16:05:18.933Z,99407.34
2022-12-29T16:08:34.864Z,99412.31
2022-12-29T16:11:28.867Z,99392.00
2022-12-29T16:14:21.907Z,99395.22
2022-12-29T16:17:20.507Z,99391.53
2022-12-29T16:20:21.469Z,99412.78
2022-12-29T16:23:22.481Z,99412.78
2022-12-29T16:26:18.957Z,99422.53
2022-12-29T16:29:09.910Z,99425.09
2022-12-29T16:32:04.057Z,99423.50
2022-12-29T16:35:04.692Z,99420.94
2022-12-29T16:38:15.668Z,99410.53
2022-12-29T16:41:05.731Z,99433.41
2022-12-29T16:44:15.488Z,99450.84
2022-12-29T16:47:22.997Z,99444.59
2022-12-29T16:50:28.167Z,99445.88
2022-12-29T16:53:26.227Z,99459.78
2022-12-29T16:56:19.725Z,99450.16
2022-12-29T16:59:20.004Z,99462.81
2022-12-29T17:02:16.786Z,99457.38
2022-12-29T17:05:06.533Z,99457.19
2022-12-29T17:08:02.035Z,99481.81
2022-12-29T17:11:10.190Z,99475.94
2022-12-29T17:13:59.562Z,99468.22
2022-12-29T17:16:49.831Z,99486.00
2022-12-29T17:19:40.670Z,99496.19
2022-12-29T17:22:31.012Z,99485.19
2022-12-29T17:25:25.394Z,99475.69
2022-12-29T17:28:22.606Z,99502.41
2022-12-29T17:31:13.107Z,99494.75
2022-12-29T17:34:02.455Z,99503.38
2022-12-29T17:36:51.762Z,99498.56
2022-12-29T17:39:40.997Z,99501.63
2022-12-29T17:42:33.090Z,99500.66
2022-12-29T17:45:25.238Z,99488.34
2022-12-29T17:48:16.542Z,99498.22
2022-12-29T17:51:06.658Z,99512.16
2022-12-29T17:53:56.870Z,99505.44
2022-12-29T17:56:46.285Z,99501.28
2022-12-29T17:59:36.961Z,99497.78
2022-12-29T18:02:30.757Z,99497.66
2022-12-29T18:05:23.249Z,99492.00
2022-12-29T18:08:13.541Z,99482.44
2022-12-29T18:11:04.219Z,99497.94
2022-12-29T18:13:54.898Z,99498.47
2022-12-29T18:16:45.727Z,99489.00
2022-12-29T18:19:36.274Z,99505.50
2022-12-29T18:22:29.021Z,99498.94
2022-12-29T18:25:26.926Z,99495.56
2022-12-29T18:28:16.140Z,99500.88
2022-12-29T18:31:05.480Z,99495.31
2022-12-29T18:33:57.788Z,99501.69
2022-12-29T18:36:47.278Z,99496.72
2022-12-29T18:39:37.229Z,99501.06
2022-12-29T18:42:26.546Z,99489.56
2022-12-29T18:45:23.063Z,99488.75
2022-12-29T18:48:12.369Z,99474.69
2022-12-29T18:51:03.016Z,99483.63
2022-12-29T18:53:54.471Z,99476.09
2022-12-29T18:56:44.033Z,99475.81
2022-12-29T18:59:33.375Z,99474.97
2022-12-29T19:02:22.656Z,99478.22
2022-12-29T19:05:23.993Z,99447.50
2022-12-29T19:08:15.088Z,99457.88
2022-12-29T19:11:04.457Z,99446.53
2022-12-29T19:13:53.759Z,99466.69
2022-12-29T19:16:43.041Z,99442.06
2022-12-29T19:19:32.412Z,99437.75
2022-12-29T19:22:21.686Z,99447.31
2022-12-29T19:25:12.450Z,99445.56
2022-12-29T19:28:02.013Z,99428.78
2022-12-29T19:30:53.088Z,99429.91
2022-12-29T19:33:42.442Z,99416.44
2022-12-29T19:36:31.970Z,99400.59
2022-12-29T19:39:21.187Z,99394.53
2022-12-29T19:42:11.791Z,99385.69
2022-12-29T19:45:02.368Z,99377.84
2022-12-29T19:47:51.725Z,99364.41
2022-12-29T19:50:43.018Z,99358.66
2022-12-29T19:53:32.265Z,99346.16
2022-12-29T19:56:21.811Z,99340.84
2022-12-29T19:59:13.361Z,99328.03
2022-12-29T20:02:02.827Z,99333.81
2022-12-29T20:04:52.844Z,99330.75
2022-12-29T20:07:42.122Z,99337.94
2022-12-29T20:10:31.368Z,99330.59
2022-12-29T20:13:20.723Z,99338.75
2022-12-29T20:16:14.946Z,99327.69
2022-12-29T20:19:04.840Z,99321.78
2022-12-29T20:21:54.162Z,99332.97
2022-12-29T20:24:49.727Z,99326.72
2022-12-29T20:27:39.441Z,99323.78
2022-12-29T20:30:29.938Z,99312.56
2022-12-29T20:33:20.584Z,99300.22
2022-12-29T20:36:12.495Z,99278.81
2022-12-29T20:39:06.013Z,99301.41
2022-12-29T20:41:55.399Z,99289.88
2022-12-29T20:44:44.948Z,99288.09
2022-12-29T20:47:34.180Z,99273.59
2022-12-29T20:50:24.831Z,99262.63
2022-12-29T20:53:14.111Z,99262.63
2022-12-29T20:56:07.385Z,99266.66
2022-12-29T20:59:26.314Z,99252.56
2022-12-29T21:02:07.153Z,99261.47
2022-12-29T21:05:22.873Z,99239.19
2022-12-29T21:08:07.839Z,99230.81
2022-12-29T21:10:58.774Z,99223.63
2022-12-29T21:13:48.494Z,99204.97
2022-12-29T21:16:38.370Z,99209.09
2022-12-29T21:19:27.725Z,99206.72
2022-12-29T21:22:17.153Z,99182.41
2022-12-29T21:25:08.789Z,99170.25
2022-12-29T21:27:58.262Z,99173.88
2022-12-29T21:30:49.134Z,99163.78
2022-12-29T21:33:39.099Z,99132.19
2022-12-29T21:36:29.438Z,99130.13
2022-12-29T21:39:18.696Z,99120.50
2022-12-29T21:42:09.675Z,99114.28
2022-12-29T21:45:20.417Z,99111.75
2022-12-29T21:48:24.084Z,99092.09
2022-12-29T21:51:33.127Z,99087.44
2022-12-29T21:54:42.981Z,99072.47
2022-12-29T21:57:51.163Z,99060.78
2022-12-29T22:01:06.042Z,99021.38
2022-12-29T22:04:12.635Z,99017.63
2022-12-29T22:07:20.738Z,98993.63
2022-12-29T22:10:27.927Z,98984.06
2022-12-29T22:13:18.530Z,98978.84
2022-12-29T22:16:10.488Z,98960.34
2022-12-29T22:19:00.253Z,98937.53
2022-12-29T22:21:49.549Z,98919.47
2022-12-29T22:24:39.269Z,98906.91
2022-12-29T22:27:28.641Z,98897.53
2022-12-29T22:30:20.380Z,98825.63
2022-12-29T22:33:10.329Z,98851.00
2022-12-29T22:35:59.603Z,98827.22
2022-12-29T22:38:49.400Z,98825.16
2022-12-29T22:41:38.680Z,98813.22
2022-12-29T22:44:27.935Z,98798.78
2022-12-29T22:47:18.625Z,98796.41
2022-12-29T22:50:08.640Z,98776.50
2022-12-29T22:52:57.833Z,98764.97
2022-12-29T22:55:47.091Z,98760.44
2022-12-29T22:58:36.719Z,98731.00
2022-12-29T23:01:26.065Z,98739.88
2022-12-29T23:07:26.515Z,98691.06
2022-12-29T23:10:15.679Z,98670.66
2022-12-29T23:15:55.661Z,98666.25
2022-12-29T23:18:45.913Z,98661.56
2022-12-29T23:21:36.575Z,98674.16
2022-12-29T23:24:27.838Z,98655.53
2022-12-29T23:27:17.237Z,98640.84
2022-12-29T23:30:08.484Z,98643.09
2022-12-29T23:32:57.761Z,98615.06
2022-12-29T23:35:46.950Z,98600.31
2022-12-29T23:38:37.873Z,98538.41
2022-12-29T23:41:28.282Z,98600.56
2022-12-29T23:44:17.746Z,98585.50
2022-12-29T23:47:07.229Z,98585.41
2022-12-29T23:49:56.593Z,98580.84
2022-12-29T23:52:45.825Z,98560.84
2022-12-29T23:55:36.996Z,98546.88
2022-12-29T23:58:26.205Z,98549.00
